Aurora, North Carolina
Current Conditions -  °F | °C
As of 1:54 PM on Wednesday 26 Nov 2014 (Local Time) from KEWN Reporting Station
Light Rain Light Rain  
Wind Chill: 45°   Ceiling: 1200
Heat Index: 49°   Visibility: 10mi
Dew Point: 44°   Wind: 9mph
Humidity: 83%   Direction: 330°NNW
Pressure: 29.82"   Gusts: NA
Location:  35.31°N, 76.79°W
Report Text: KEWN 261854Z 33008KT 10SM -RA OVC012 09/07 A2982 RMK AO2 SLP097 P0001 T00940067
Loading
Personal Weather Stations






























Interactive Weather Map New forecast layout! Learn more

10-Day Weather Forecast

Advertisements
Track Severe Weather on mobile